地図

経路データ

SID SEASON NUMBER BASIN SUBBASIN NAME ISO_TIME NATURE LAT LON WMO_WIND WMO_PRES WMO_AGENCY TRACK_TYPE DIST2LAND LANDFALL IFLAG USA_AGENCY USA_ATCF_ID USA_LAT USA_LON USA_RECORD USA_STATUS USA_WIND USA_PRES USA_SSHS USA_R34_NE USA_R34_SE USA_R34_SW USA_R34_NW USA_R50_NE USA_R50_SE USA_R50_SW USA_R50_NW USA_R64_NE USA_R64_SE USA_R64_SW USA_R64_NW USA_POCI USA_ROCI USA_RMW USA_EYE TOKYO_LAT TOKYO_LON TOKYO_GRADE TOKYO_WIND TOKYO_PRES TOKYO_R50_DIR TOKYO_R50_LONG TOKYO_R50_SHORT TOKYO_R30_DIR TOKYO_R30_LONG TOKYO_R30_SHORT TOKYO_LAND CMA_LAT CMA_LON CMA_CAT CMA_WIND CMA_PRES HKO_LAT HKO_LON HKO_CAT HKO_WIND HKO_PRES NEWDELHI_LAT NEWDELHI_LON NEWDELHI_GRADE NEWDELHI_WIND NEWDELHI_PRES NEWDELHI_CI NEWDELHI_DP NEWDELHI_POCI REUNION_LAT REUNION_LON REUNION_TYPE REUNION_WIND REUNION_PRES REUNION_TNUM REUNION_CI REUNION_RMW REUNION_R34_NE REUNION_R34_SE REUNION_R34_SW REUNION_R34_NW REUNION_R50_NE REUNION_R50_SE REUNION_R50_SW REUNION_R50_NW REUNION_R64_NE REUNION_R64_SE REUNION_R64_SW REUNION_R64_NW BOM_LAT BOM_LON BOM_TYPE BOM_WIND BOM_PRES BOM_TNUM BOM_CI BOM_RMW BOM_R34_NE BOM_R34_SE BOM_R34_SW BOM_R34_NW BOM_R50_NE BOM_R50_SE BOM_R50_SW BOM_R50_NW BOM_R64_NE BOM_R64_SE BOM_R64_SW BOM_R64_NW BOM_ROCI BOM_POCI BOM_EYE BOM_POS_METHOD BOM_PRES_METHOD NADI_LAT NADI_LON NADI_CAT NADI_WIND NADI_PRES WELLINGTON_LAT WELLINGTON_LON WELLINGTON_WIND WELLINGTON_PRES DS824_LAT DS824_LON DS824_STAGE DS824_WIND DS824_PRES TD9636_LAT TD9636_LON TD9636_STAGE TD9636_WIND TD9636_PRES TD9635_LAT TD9635_LON TD9635_WIND TD9635_PRES TD9635_ROCI NEUMANN_LAT NEUMANN_LON NEUMANN_CLASS NEUMANN_WIND NEUMANN_PRES MLC_LAT MLC_LON MLC_CLASS MLC_WIND MLC_PRES USA_GUST BOM_GUST BOM_GUST_PER REUNION_GUST REUNION_GUST_PER USA_SEAHGT USA_SEARAD_NE USA_SEARAD_SE USA_SEARAD_SW USA_SEARAD_NW STORM_SPEED STORM_DIR
1953028N08097 1953 8 NI BB NOT_NAMED 1953-01-27 18:00:00 TS 8.40000 96.8000 main 165 165 O________O____ jtwc_io IO011953 8.40000 96.8000 -1 8.40000 96.8000 TC 4 293
1953028N08097 1953 8 NI BB NOT_NAMED 1953-01-27 21:00:00 TS 8.48253 96.6050 main 187 187 P________P____ IO011953 8.48253 96.6050 -1 8.48253 96.6050 TC 4 297
1953028N08097 1953 8 NI BB NOT_NAMED 1953-01-28 00:00:00 TS 8.60000 96.4000 main 209 209 O________O____ jtwc_io IO011953 8.60000 96.4000 -1 8.60000 96.4000 TC 25 5 305
1953028N08097 1953 8 NI BB NOT_NAMED 1953-01-28 03:00:00 TS 8.77997 96.1755 main 230 230 P________PO___ IO011953 8.77746 96.1725 -1 8.77746 96.1725 TC 25 8.80000 96.2000 1 7 308
1953028N08097 1953 8 NI BB NOT_NAMED 1953-01-28 06:00:00 TS 9.00321 95.8845 main 264 264 O________OP___ jtwc_io IO011953 9.00000 95.9000 -1 9.00000 95.9000 TC 25 9.01604 95.8223 1 8 305
1953028N08097 1953 8 NI BB NOT_NAMED 1953-01-28 09:00:00 TS 9.23246 95.5188 main 309 309 P________PP___ IO011953 9.22758 95.5350 -1 9.22758 95.5350 TC 25 9.24548 95.4754 1 8 306
1953028N08097 1953 8 NI BB NOT_NAMED 1953-01-28 12:00:00 TS 9.50072 95.1970 main 347 347 O________OP___ jtwc_io IO011953 9.50000 95.2000 -1 9.50000 95.2000 TC 25 9.50215 95.1908 1 8 318
1953028N08097 1953 8 NI BB NOT_NAMED 1953-01-28 15:00:00 TS 9.81830 94.9933 main 376 376 P________PO___ IO011953 9.82745 94.9900 -1 9.82745 94.9900 TC 25 9.80000 95.0000 1 7 337
1953028N08097 1953 8 NI BB NOT_NAMED 1953-01-28 18:00:00 TS 10.1834 94.9083 main 394 393 O________OP___ jtwc_io IO011953 10.2000 94.9000 -1 10.2000 94.9000 TC 25 10.1502 94.9250 1 8 354
1953028N08097 1953 8 NI BB NOT_NAMED 1953-01-28 21:00:00 TS 10.5641 94.9151 main 393 383 P________PP___ IO011953 10.5700 94.8976 -1 10.5700 94.8976 TC 25 10.5523 94.9501 1 8 7
1953028N08097 1953 8 NI BB NOT_NAMED 1953-01-29 00:00:00 TS 11.0011 95.0167 main 385 362 O________OP___ jtwc_io IO011953 11.0000 95.0000 -1 11.0000 95.0000 TC 25 11.0033 95.0501 1 10 16
1953028N08097 1953 8 NI BB NOT_NAMED 1953-01-29 03:00:00 TS 11.5184 95.1850 main 362 337 P________PO___ IO011953 11.5275 95.1774 -1 11.5275 95.1774 TC 25 11.5000 95.2000 1 11 18
1953028N08097 1953 8 NI BB NOT_NAMED 1953-01-29 06:00:00 TS 12.0827 95.3869 main 337 293 O________OP___ jtwc_io IO011953 12.1000 95.4000 -1 12.1000 95.4000 TC 25 12.0482 95.3606 1 12 19
1953028N08097 1953 8 NI BB NOT_NAMED 1953-01-29 09:00:00 TS 12.6450 95.5874 main 293 252 P________PP___ IO011953 12.6500 95.6001 -1 12.6500 95.6001 TC 25 12.6351 95.5620 1 12 19
1953028N08097 1953 8 NI BB NOT_NAMED 1953-01-29 12:00:00 TS 13.2098 95.7942 main 252 224 O________OP___ jtwc_io IO011953 13.2000 95.8000 -1 13.2000 95.8000 TC 25 13.2295 95.7825 1 12 20
1953028N08097 1953 8 NI BB NOT_NAMED 1953-01-29 15:00:00 TS 13.7717 96.0050 main 218 173 P________PO___ IO011953 13.7575 96.0075 -1 13.7575 96.0075 TC 25 13.8000 96.0000 1 12 20
1953028N08097 1953 8 NI BB NOT_NAMED 1953-01-29 18:00:00 TS 14.3092 96.1988 main 173 132 O________OP___ jtwc_io IO011953 14.3000 96.2000 -1 14.3000 96.2000 TC 25 14.3230 96.1970 1 11 19
1953028N08097 1953 8 NI BB NOT_NAMED 1953-01-29 21:00:00 TS 14.8078 96.3664 main 139 116 P________PP___ IO011953 14.8100 96.3599 -1 14.8100 96.3599 TC 25 14.8049 96.3750 1 10 18
1953028N08097 1953 8 NI BB NOT_NAMED 1953-01-30 00:00:00 TS 15.2797 96.5202 main 116 89 O________OP___ jtwc_io IO011953 15.3000 96.5000 -1 15.3000 96.5000 TC 25 15.2593 96.5405 1 10 20
1953028N08097 1953 8 NI BB NOT_NAMED 1953-01-30 03:00:00 NR 15.7000 96.7000 main 89 __________O___ IO011953 -1 TC 15.7000 96.7000 1 9 22

IBTrACS Databaseについて

本データベースは、米国NOAAが公開する1842年以降の世界の熱帯低気圧のベストトラックデータアーカイブInternational Best Track Archive for Climate Stewardship (IBTrACS)を、ウェブで閲覧しやすい形式に変換したものです。

最終更新日:2021-10-08